Time,TemperatureF,DewpointF,PressureIn,WindDirection,WindDirectionDegrees,WindSpeedMPH,WindSpeedGustMPH,Humidity,HourlyPrecipIn,Conditions,Clouds,dailyrainin,SolarRadiationWatts/m^2,SoftwareType,DateUTC
2013-06-14 00:02:00,43.0,38.0,-100.00,NNW,342,2.0,3.0,84,0.00,,,0.01,0.000000,,2013-06-14 06:02:00,
2013-06-14 00:12:00,43.0,38.0,-100.00,NNW,342,2.0,3.0,84,0.00,,,0.01,0.000000,,2013-06-14 06:12:00,
2013-06-14 01:02:00,38.0,36.0,-100.00,NNW,332,2.0,4.0,92,0.00,,,0.01,0.000000,,2013-06-14 07:02:00,
2013-06-14 01:12:00,38.0,36.0,-100.00,NNW,332,2.0,4.0,92,0.00,,,0.01,0.000000,,2013-06-14 07:12:00,
2013-06-14 05:43:00,33.0,33.0,-100.00,North,3,2.0,3.0,99,-99.99,,,0.00,0.000000,,2013-06-14 11:43:00,
2013-06-14 05:52:00,33.0,33.0,-100.00,North,3,2.0,3.0,99,-99.99,,,0.00,0.000000,,2013-06-14 11:52:00,
2013-06-14 06:43:00,36.0,36.0,-100.00,NNW,344,3.0,5.0,99,-99.99,,,0.00,5.000000,,2013-06-14 12:43:00,
2013-06-14 06:52:00,36.0,36.0,-100.00,NNW,344,3.0,5.0,99,-99.99,,,0.00,5.000000,,2013-06-14 12:52:00,
2013-06-14 07:02:00,36.0,36.0,-100.00,NNW,344,3.0,5.0,99,-99.99,,,0.00,5.000000,,2013-06-14 13:02:00,
2013-06-14 07:11:00,36.0,36.0,-100.00,NNW,344,3.0,5.0,99,-99.99,,,0.00,5.000000,,2013-06-14 13:11:00,
2013-06-14 07:53:00,40.0,40.0,-100.00,North,351,2.0,4.0,99,0.00,,,0.00,63.000000,,2013-06-14 13:53:00,
2013-06-14 08:02:00,40.0,40.0,-100.00,North,351,2.0,4.0,99,0.00,,,0.00,63.000000,,2013-06-14 14:02:00,
2013-06-14 08:11:00,40.0,40.0,-100.00,North,351,2.0,4.0,99,0.00,,,0.00,63.000000,,2013-06-14 14:11:00,
2013-06-14 08:43:00,46.0,42.0,-100.00,WNW,285,3.0,6.0,87,0.00,,,0.00,115.000000,,2013-06-14 14:43:00,
2013-06-14 08:52:00,46.0,42.0,-100.00,WNW,285,3.0,6.0,87,0.00,,,0.00,115.000000,,2013-06-14 14:52:00,
2013-06-14 09:01:00,46.0,42.0,-100.00,WNW,285,3.0,6.0,87,0.00,,,0.00,115.000000,,2013-06-14 15:01:00,
2013-06-14 09:11:00,46.0,42.0,-100.00,WNW,285,3.0,6.0,87,0.00,,,0.00,115.000000,,2013-06-14 15:11:00,
2013-06-14 09:44:00,50.0,38.0,-100.00,SSW,201,4.0,7.0,64,0.00,,,0.00,181.000000,,2013-06-14 15:44:00,
2013-06-14 09:53:00,50.0,38.0,-100.00,SSW,201,4.0,7.0,64,0.00,,,0.00,181.000000,,2013-06-14 15:53:00,
2013-06-14 10:01:00,50.0,38.0,-100.00,SSW,201,4.0,7.0,64,0.00,,,0.00,181.000000,,2013-06-14 16:01:00,
2013-06-14 10:11:00,50.0,38.0,-100.00,SSW,201,4.0,7.0,64,0.00,,,0.00,181.000000,,2013-06-14 16:11:00,
2013-06-14 10:43:00,53.0,38.0,-100.00,SSW,202,5.0,11.0,57,0.00,,,0.00,353.000000,,2013-06-14 16:43:00,
2013-06-14 10:53:00,53.0,38.0,-100.00,SSW,202,5.0,11.0,57,0.00,,,0.00,353.000000,,2013-06-14 16:53:00,
2013-06-14 11:02:00,53.0,38.0,-100.00,SSW,202,5.0,11.0,57,0.00,,,0.00,353.000000,,2013-06-14 17:02:00,
2013-06-14 11:11:00,53.0,38.0,-100.00,SSW,202,5.0,11.0,57,0.00,,,0.00,353.000000,,2013-06-14 17:11:00,
2013-06-14 11:43:00,52.0,37.0,-100.00,SW,218,8.0,16.0,56,0.00,,,0.00,299.000000,,2013-06-14 17:43:00,
2013-06-14 11:53:00,52.0,37.0,-100.00,SW,218,8.0,16.0,56,0.00,,,0.00,299.000000,,2013-06-14 17:53:00,
2013-06-14 12:02:00,52.0,37.0,-100.00,SW,218,8.0,16.0,56,0.00,,,0.00,299.000000,,2013-06-14 18:02:00,
2013-06-14 12:11:00,52.0,37.0,-100.00,SW,218,8.0,16.0,56,0.00,,,0.00,299.000000,,2013-06-14 18:11:00,
2013-06-14 12:43:00,53.0,37.0,-100.00,SW,221,7.0,19.0,54,0.00,,,0.00,515.000000,,2013-06-14 18:43:00,
2013-06-14 12:52:00,53.0,37.0,-100.00,SW,221,7.0,19.0,54,0.00,,,0.00,515.000000,,2013-06-14 18:52:00,
2013-06-14 13:01:00,53.0,37.0,-100.00,SW,221,7.0,19.0,54,0.00,,,0.00,515.000000,,2013-06-14 19:01:00,
2013-06-14 13:11:00,53.0,37.0,-100.00,SW,221,7.0,19.0,54,0.00,,,0.00,515.000000,,2013-06-14 19:11:00,
2013-06-14 13:43:00,53.0,36.0,-100.00,SW,214,9.0,17.0,52,0.00,,,0.00,471.000000,,2013-06-14 19:43:00,
2013-06-14 13:53:00,53.0,36.0,-100.00,SW,214,9.0,17.0,52,0.00,,,0.00,471.000000,,2013-06-14 19:53:00,
2013-06-14 14:01:00,53.0,36.0,-100.00,SW,214,9.0,17.0,52,0.00,,,0.00,471.000000,,2013-06-14 20:01:00,
2013-06-14 14:11:00,53.0,36.0,-100.00,SW,214,9.0,17.0,52,0.00,,,0.00,471.000000,,2013-06-14 20:11:00,
2013-06-14 14:43:00,54.0,38.0,-100.00,SW,225,8.0,19.0,54,0.00,,,0.00,582.000000,,2013-06-14 20:43:00,
2013-06-14 14:53:00,54.0,38.0,-100.00,SW,225,8.0,19.0,54,0.00,,,0.00,582.000000,,2013-06-14 20:53:00,
2013-06-14 15:02:00,54.0,38.0,-100.00,SW,225,8.0,19.0,54,0.00,,,0.00,582.000000,,2013-06-14 21:02:00,
2013-06-14 15:11:00,54.0,38.0,-100.00,SW,225,8.0,19.0,54,0.00,,,0.00,582.000000,,2013-06-14 21:11:00,
2013-06-14 15:43:00,54.0,36.0,-100.00,SW,220,8.0,18.0,51,0.00,,,0.00,686.000000,,2013-06-14 21:43:00,
2013-06-14 15:52:00,54.0,36.0,-100.00,SW,220,8.0,18.0,51,0.00,,,0.00,686.000000,,2013-06-14 21:52:00,
2013-06-14 16:01:00,54.0,36.0,-100.00,SW,220,8.0,18.0,51,0.00,,,0.00,686.000000,,2013-06-14 22:01:00,
2013-06-14 16:11:00,54.0,36.0,-100.00,SW,220,8.0,18.0,51,0.00,,,0.00,686.000000,,2013-06-14 22:11:00,
2013-06-14 16:43:00,54.0,37.0,-100.00,SW,227,7.0,16.0,53,0.00,,,0.00,322.000000,,2013-06-14 22:43:00,
2013-06-14 16:53:00,54.0,37.0,-100.00,SW,227,7.0,16.0,53,0.00,,,0.00,322.000000,,2013-06-14 22:53:00,
2013-06-14 17:01:00,54.0,37.0,-100.00,SW,227,7.0,16.0,53,0.00,,,0.00,322.000000,,2013-06-14 23:01:00,
2013-06-14 17:11:00,54.0,37.0,-100.00,SW,227,7.0,16.0,53,0.00,,,0.00,322.000000,,2013-06-14 23:11:00,
2013-06-14 17:43:00,54.0,38.0,-100.00,West,260,5.0,19.0,55,0.00,,,0.00,307.000000,,2013-06-14 23:43:00,
2013-06-14 17:52:00,54.0,38.0,-100.00,West,260,5.0,19.0,55,0.00,,,0.00,307.000000,,2013-06-14 23:52:00,
2013-06-14 18:01:00,54.0,38.0,-100.00,West,260,5.0,19.0,55,0.00,,,0.00,307.000000,,2013-06-15 00:01:00,
2013-06-14 18:11:00,54.0,38.0,-100.00,West,260,5.0,19.0,55,0.00,,,0.00,307.000000,,2013-06-15 00:11:00,
2013-06-14 19:43:00,53.0,39.0,-100.00,West,262,4.0,12.0,59,-99.99,,,0.00,104.000000,,2013-06-15 01:43:00,
2013-06-14 19:54:00,53.0,39.0,-100.00,West,262,4.0,12.0,59,-99.99,,,0.00,104.000000,,2013-06-15 01:54:00,
2013-06-14 20:02:00,53.0,39.0,-100.00,West,262,4.0,12.0,59,-99.99,,,0.00,104.000000,,2013-06-15 02:02:00,
2013-06-14 20:11:00,53.0,39.0,-100.00,West,262,4.0,12.0,59,-99.99,,,0.00,104.000000,,2013-06-15 02:11:00,
2013-06-14 20:43:00,53.0,39.0,-100.00,SW,222,4.0,11.0,60,0.00,,,0.00,97.000000,,2013-06-15 02:43:00,
2013-06-14 20:53:00,53.0,39.0,-100.00,SW,222,4.0,11.0,60,0.00,,,0.00,97.000000,,2013-06-15 02:53:00,
2013-06-14 21:01:00,53.0,39.0,-100.00,SW,222,4.0,11.0,60,0.00,,,0.00,97.000000,,2013-06-15 03:01:00,
2013-06-14 21:11:00,53.0,39.0,-100.00,SW,222,4.0,11.0,60,0.00,,,0.00,97.000000,,2013-06-15 03:11:00,
2013-06-14 21:44:00,52.0,39.0,-100.00,WSW,239,4.0,11.0,61,0.00,,,0.00,44.000000,,2013-06-15 03:44:00,
2013-06-14 21:53:00,52.0,39.0,-100.00,WSW,239,4.0,11.0,61,0.00,,,0.00,44.000000,,2013-06-15 03:53:00,
2013-06-14 22:01:00,52.0,39.0,-100.00,WSW,239,4.0,11.0,61,0.00,,,0.00,44.000000,,2013-06-15 04:01:00,
2013-06-14 22:11:00,52.0,39.0,-100.00,WSW,239,4.0,11.0,61,0.00,,,0.00,44.000000,,2013-06-15 04:11:00,
2013-06-14 22:43:00,49.0,40.0,-100.00,WNW,293,4.0,8.0,70,0.00,,,0.00,6.000000,,2013-06-15 04:43:00,
2013-06-14 22:54:00,49.0,40.0,-100.00,WNW,293,4.0,8.0,70,0.00,,,0.00,6.000000,,2013-06-15 04:54:00,
2013-06-14 23:02:00,49.0,40.0,-100.00,WNW,293,4.0,8.0,70,0.00,,,0.00,6.000000,,2013-06-15 05:02:00,
2013-06-14 23:12:00,49.0,40.0,-100.00,WNW,293,4.0,8.0,70,0.00,,,0.00,6.000000,,2013-06-15 05:12:00,
2013-06-14 23:43:00,44.0,39.0,-100.00,NNW,329,3.0,6.0,82,0.00,,,0.00,0.000000,,2013-06-15 05:43:00,
2013-06-14 23:52:00,44.0,39.0,-100.00,NNW,329,3.0,6.0,82,0.00,,,0.00,0.000000,,2013-06-15 05:52:00,